Time;durP1;ratioP1;P1;durP2;ratioP2;P2;SDS_P1;SDS_P2;PMS_P1;PMS_P2;Temp;Humidity;BMP_temperature;BMP_pressure;BME280_temperature;BME280_humidity;BME280_pressure;Samples;Min_cycle;Max_cycle;Signal;HPM_P1;HPM_P2
2022/01/22 00:00:40;;;;;;;;;;;;;;;13.82;49.75;103494.97;5121448;28;20387;-81
2022/01/22 00:03:06;;;;;;;;;;;;;;;13.33;51.23;103492.19;5120081;28;20370;-80
2022/01/22 00:05:31;;;;;;;;;;;;;;;13.40;50.98;103499.34;5119038;28;19963;-80
2022/01/22 00:07:56;;;;;;;;;;;;;;;13.08;52.29;103493.47;5121523;28;19922;-81
2022/01/22 00:10:23;;;;;;;;;;;;;;;13.18;52.50;103501.47;5120582;28;19916;-79
2022/01/22 00:15:14;;;;;;;;;;;;;;;12.76;53.32;103491.25;5121236;28;19927;-82
2022/01/22 00:17:40;;;;;;;;;;;;;;;13.76;50.70;103481.47;5119913;28;19916;-82
2022/01/22 00:20:06;;;;;;;;;;;;;;;13.46;51.23;103478.38;5120402;28;19923;-81
2022/01/22 00:22:34;;;;;;;;;;;;;;;13.74;51.24;103469.72;5118795;28;19919;-82
2022/01/22 00:25:01;;;;;;;;;;;;;;;12.84;52.53;103472.13;5119473;28;20369;-83
2022/01/22 00:27:27;;;;;;;;;;;;;;;13.74;50.96;103477.91;5119726;28;19916;-82
2022/01/22 00:29:52;;;;;;;;;;;;;;;13.75;50.83;103482.41;5118628;28;19915;-81
2022/01/22 00:32:18;;;;;;;;;;;;;;;13.94;50.26;103471.19;5119054;28;19970;-81
2022/01/22 00:34:43;;;;;;;;;;;;;;;13.85;50.13;103471.34;5119473;28;19922;-80
2022/01/22 00:37:08;;;;;;;;;;;;;;;13.77;51.09;103476.94;5119142;28;19966;-80
2022/01/22 00:39:34;;;;;;;;;;;;;;;13.89;50.69;103467.63;5120346;28;19922;-81
2022/01/22 00:42:00;;;;;;;;;;;;;;;13.41;52.06;103463.09;5120100;28;20265;-80
2022/01/22 00:44:25;;;;;;;;;;;;;;;13.10;53.10;103471.72;5119615;28;20369;-82
2022/01/22 00:46:51;;;;;;;;;;;;;;;13.69;51.79;103468.03;5119559;28;20353;-80
2022/01/22 00:49:16;;;;;;;;;;;;;;;13.70;52.07;103459.81;5120352;28;19922;-81
2022/01/22 00:51:41;;;;;;;;;;;;;;;13.15;53.42;103464.41;5119156;28;20365;-80
2022/01/22 00:54:07;;;;;;;;;;;;;;;13.11;53.38;103462.66;5118114;28;20318;-82
2022/01/22 00:56:32;;;;;;;;;;;;;;;13.53;52.72;103473.75;5119391;28;19922;-80
2022/01/22 00:58:57;;;;;;;;;;;;;;;12.88;53.82;103474.78;5120644;28;19923;-81
2022/01/22 01:01:22;;;;;;;;;;;;;;;13.64;52.07;103462.66;5119919;28;19915;-80
2022/01/22 01:03:48;;;;;;;;;;;;;;;13.34;53.11;103467.72;5121006;28;19926;-81
2022/01/22 01:06:13;;;;;;;;;;;;;;;13.45;53.33;103479.31;5120715;28;19915;-82
2022/01/22 01:08:38;;;;;;;;;;;;;;;13.61;52.33;103469.06;5120713;28;19920;-80
2022/01/22 01:11:06;;;;;;;;;;;;;;;12.76;54.18;103464.97;5120226;28;19915;-82
2022/01/22 01:13:37;;;;;;;;;;;;;;;13.56;52.86;103462.81;5119366;28;19950;-81
2022/01/22 01:16:16;;;;;;;;;;;;;;;13.12;53.75;103459.91;5121300;28;19916;-81
2022/01/22 01:32:29;;;;;;;;;;;;;;;12.95;53.29;103453.81;5118810;28;20015;-84
2022/01/22 01:34:57;;;;;;;;;;;;;;;13.22;52.81;103448.88;5116403;28;19916;-81
2022/01/22 01:37:22;;;;;;;;;;;;;;;13.76;51.83;103458.81;5118772;28;19924;-80
2022/01/22 01:39:52;;;;;;;;;;;;;;;13.47;52.10;103457.53;5118743;28;20356;-81
2022/01/22 01:42:24;;;;;;;;;;;;;;;13.10;53.60;103460.84;5120294;28;20566;-80
2022/01/22 01:44:50;;;;;;;;;;;;;;;13.31;52.82;103459.59;5120276;28;20031;-81
2022/01/22 01:47:17;;;;;;;;;;;;;;;12.78;53.93;103464.97;5116565;28;20335;-81
2022/01/22 01:49:42;;;;;;;;;;;;;;;12.40;55.59;103463.69;5118592;28;19959;-81
2022/01/22 01:52:13;;;;;;;;;;;;;;;12.51;55.40;103467.13;5119512;28;19946;-80
2022/01/22 01:54:58;;;;;;;;;;;;;;;12.97;53.50;103467.38;5121553;28;19967;-82
2022/01/22 01:59:52;;;;;;;;;;;;;;;13.11;53.24;103468.09;5125186;28;20422;-79
2022/01/22 02:02:18;;;;;;;;;;;;;;;12.67;54.42;103462.41;5122546;28;19994;-79
2022/01/22 02:04:43;;;;;;;;;;;;;;;12.54;55.35;103463.50;5123731;28;19916;-80
2022/01/22 02:07:09;;;;;;;;;;;;;;;12.25;56.09;103467.50;5123269;28;20017;-80
2022/01/22 02:09:35;;;;;;;;;;;;;;;12.54;55.82;103468.94;5123006;28;19916;-81
2022/01/22 02:12:06;;;;;;;;;;;;;;;12.38;55.84;103468.25;5124322;28;19916;-81
2022/01/22 02:25:15;;;;;;;;;;;;;;;13.69;52.08;103459.84;5126017;28;19923;-82
2022/01/22 02:27:40;;;;;;;;;;;;;;;13.92;50.99;103465.75;5124719;28;19915;-80
2022/01/22 02:30:06;;;;;;;;;;;;;;;13.45;52.56;103460.28;5124172;28;19923;-80
2022/01/22 02:35:29;;;;;;;;;;;;;;;13.16;53.34;103457.13;5124759;28;19944;-80
2022/01/22 02:38:01;;;;;;;;;;;;;;;13.11;53.91;103460.81;5123419;28;19936;-81
2022/01/22 02:40:30;;;;;;;;;;;;;;;13.43;53.34;103459.41;5125008;28;19916;-80
2022/01/22 02:42:57;;;;;;;;;;;;;;;12.97;53.28;103460.16;5122151;28;19920;-80
2022/01/22 02:45:23;;;;;;;;;;;;;;;13.38;52.71;103468.59;5120690;28;19920;-80
2022/01/22 02:47:49;;;;;;;;;;;;;;;13.17;54.09;103461.66;5122659;28;20010;-81
2022/01/22 02:50:15;;;;;;;;;;;;;;;13.83;52.34;103461.38;5121911;28;19954;-81
2022/01/22 02:52:40;;;;;;;;;;;;;;;13.39;53.66;103459.47;5123582;28;19964;-82
2022/01/22 02:55:07;;;;;;;;;;;;;;;13.28;53.54;103460.53;5123188;28;19922;-82
2022/01/22 02:57:34;;;;;;;;;;;;;;;13.14;54.01;103462.59;5121363;28;19923;-81
2022/01/22 03:00:00;;;;;;;;;;;;;;;13.56;53.10;103451.94;5121388;28;19920;-82
2022/01/22 03:02:25;;;;;;;;;;;;;;;13.38;54.00;103457.72;5120709;28;19923;-81
2022/01/22 03:04:51;;;;;;;;;;;;;;;13.63;53.32;103460.84;5119980;28;20413;-82
2022/01/22 03:07:16;;;;;;;;;;;;;;;13.39;53.51;103457.69;5121914;28;19923;-81
2022/01/22 03:09:44;;;;;;;;;;;;;;;13.54;53.33;103459.22;5121471;28;19922;-81
2022/01/22 03:17:34;;;;;;;;;;;;;;;13.49;54.23;103468.38;5122654;28;20002;-81
2022/01/22 03:20:20;;;;;;;;;;;;;;;13.90;52.98;103466.72;5122650;28;19927;-81
2022/01/22 03:27:55;;;;;;;;;;;;;;;14.77;50.24;103460.38;5122905;28;19974;-81
2022/01/22 03:30:20;;;;;;;;;;;;;;;14.67;50.24;103468.75;5122821;28;19916;-80
2022/01/22 03:32:49;;;;;;;;;;;;;;;14.69;50.59;103472.31;5121121;28;19916;-82
2022/01/22 03:37:43;;;;;;;;;;;;;;;14.45;51.70;103465.56;5121617;28;19916;-80
2022/01/22 03:40:10;;;;;;;;;;;;;;;14.04;52.17;103464.63;5120751;28;19931;-82
2022/01/22 03:42:35;;;;;;;;;;;;;;;13.76;53.25;103470.59;5120913;28;19919;-82
2022/01/22 03:45:02;;;;;;;;;;;;;;;13.16;55.50;103470.72;5121798;28;19915;-82
2022/01/22 03:47:27;;;;;;;;;;;;;;;13.63;53.76;103471.75;5121190;28;19916;-81
2022/01/22 03:49:52;;;;;;;;;;;;;;;12.93;55.22;103477.41;5122620;28;19919;-81
2022/01/22 03:52:17;;;;;;;;;;;;;;;13.69;54.24;103476.19;5121211;28;20276;-81
2022/01/22 03:54:43;;;;;;;;;;;;;;;13.11;55.88;103477.13;5121448;28;19920;-81
2022/01/22 03:57:09;;;;;;;;;;;;;;;13.23;54.51;103481.47;5120674;28;20342;-81
2022/01/22 03:59:34;;;;;;;;;;;;;;;13.01;55.40;103480.91;5122953;28;20379;-82
2022/01/22 04:04:33;;;;;;;;;;;;;;;15.04;49.62;103469.69;5122930;28;19923;-82
2022/01/22 04:09:45;;;;;;;;;;;;;;;14.38;50.58;103469.34;5100882;28;19922;-80
2022/01/22 04:12:13;;;;;;;;;;;;;;;14.05;51.29;103460.06;5122895;28;19920;-82
2022/01/22 04:14:46;;;;;;;;;;;;;;;13.64;52.51;103470.81;5120992;28;19923;-79
2022/01/22 04:25:08;;;;;;;;;;;;;;;13.92;52.17;103482.09;5122105;28;19907;-81
2022/01/22 04:27:33;;;;;;;;;;;;;;;14.08;51.44;103485.38;5120000;28;20440;-81
2022/01/22 04:29:59;;;;;;;;;;;;;;;14.09;51.51;103483.59;5119422;28;19955;-81
2022/01/22 04:32:30;;;;;;;;;;;;;;;14.27;50.75;103488.66;5120604;28;19957;-80
2022/01/22 04:34:55;;;;;;;;;;;;;;;14.52;50.48;103488.09;5120427;28;19923;-82
2022/01/22 04:37:21;;;;;;;;;;;;;;;14.03;51.11;103483.72;5119984;28;19920;-82
2022/01/22 04:39:47;;;;;;;;;;;;;;;14.15;51.12;103488.91;5119449;28;19916;-81
2022/01/22 04:42:12;;;;;;;;;;;;;;;13.84;52.12;103489.47;5119397;28;19938;-81
2022/01/22 04:44:47;;;;;;;;;;;;;;;14.18;51.72;103481.56;5120663;28;19923;-81
2022/01/22 04:47:27;;;;;;;;;;;;;;;14.27;51.09;103476.88;5118771;28;20317;-81
2022/01/22 04:52:43;;;;;;;;;;;;;;;14.28;50.94;103465.03;5120479;28;19941;-82
2022/01/22 04:55:10;;;;;;;;;;;;;;;13.38;53.79;103469.47;5119513;28;20399;-83
2022/01/22 04:57:40;;;;;;;;;;;;;;;13.51;53.78;103467.41;5120348;28;19939;-82
2022/01/22 05:00:08;;;;;;;;;;;;;;;14.09;53.10;103462.69;5118946;28;19916;-81
2022/01/22 05:02:33;;;;;;;;;;;;;;;13.70;53.62;103473.44;5119383;28;20345;-82
2022/01/22 05:04:58;;;;;;;;;;;;;;;13.54;54.58;103471.91;5119391;28;19954;-80
2022/01/22 05:07:24;;;;;;;;;;;;;;;13.17;55.56;103475.25;5120907;28;20297;-83
2022/01/22 05:09:49;;;;;;;;;;;;;;;13.39;54.88;103470.34;5121106;28;19916;-81
2022/01/22 05:12:14;;;;;;;;;;;;;;;13.30;55.56;103461.41;5118882;28;19916;-82
2022/01/22 05:14:39;;;;;;;;;;;;;;;12.82;56.50;103468.50;5119921;28;19961;-81
2022/01/22 05:17:06;;;;;;;;;;;;;;;12.74;56.42;103463.19;5119343;28;20438;-81
2022/01/22 05:19:47;;;;;;;;;;;;;;;12.96;56.06;103463.78;5119982;28;19927;-81
2022/01/22 05:24:44;;;;;;;;;;;;;;;13.49;54.55;103466.56;5119610;28;19923;-81
2022/01/22 05:27:46;;;;;;;;;;;;;;;13.37;54.10;103459.50;5119401;28;19915;-83
2022/01/22 05:30:12;;;;;;;;;;;;;;;13.22;54.28;103466.06;5118505;28;19923;-82
2022/01/22 05:37:46;;;;;;;;;;;;;;;13.24;54.27;103466.03;5120481;28;20013;-82
2022/01/22 05:40:12;;;;;;;;;;;;;;;13.71;52.75;103461.63;5119306;28;19916;-81
2022/01/22 05:42:37;;;;;;;;;;;;;;;13.62;52.19;103467.25;5120092;28;19920;-81
2022/01/22 05:45:06;;;;;;;;;;;;;;;14.27;51.34;103468.69;5119773;28;19920;-81
2022/01/22 05:47:32;;;;;;;;;;;;;;;13.64;52.80;103468.09;5118489;28;19920;-82
2022/01/22 05:49:57;;;;;;;;;;;;;;;13.05;54.54;103479.94;5118764;28;19919;-82
2022/01/22 05:52:31;;;;;;;;;;;;;;;13.14;54.03;103475.31;5119016;28;19923;-82
2022/01/22 06:00:12;;;;;;;;;;;;;;;13.11;54.81;103482.56;5120688;28;20057;-81
2022/01/22 06:02:38;;;;;;;;;;;;;;;13.32;53.86;103485.84;5118558;28;19947;-82
2022/01/22 06:05:03;;;;;;;;;;;;;;;13.35;54.07;103483.13;5118821;28;19916;-81
2022/01/22 06:07:28;;;;;;;;;;;;;;;13.34;53.99;103483.16;5117643;28;19989;-82
2022/01/22 06:10:14;;;;;;;;;;;;;;;13.36;53.92;103490.38;5120068;28;19916;-81
2022/01/22 06:12:58;;;;;;;;;;;;;;;13.83;52.39;103485.00;5119474;28;19920;-82
2022/01/22 06:15:23;;;;;;;;;;;;;;;14.86;49.69;103496.47;5119044;28;19923;-83
2022/01/22 06:17:48;;;;;;;;;;;;;;;15.15;48.87;103492.13;5120241;28;19919;-82
2022/01/22 06:20:15;;;;;;;;;;;;;;;15.23;48.43;103495.59;5119296;28;19925;-82
2022/01/22 06:22:40;;;;;;;;;;;;;;;15.56;47.51;103498.34;5119621;28;19924;-82
2022/01/22 06:25:06;;;;;;;;;;;;;;;15.48;47.75;103497.69;5119708;28;20311;-82
2022/01/22 06:27:32;;;;;;;;;;;;;;;15.51;47.76;103496.72;5118563;28;20406;-81
2022/01/22 06:29:57;;;;;;;;;;;;;;;15.38;48.02;103490.66;5117211;28;20501;-82
2022/01/22 06:32:22;;;;;;;;;;;;;;;15.33;47.83;103498.97;5117487;28;19912;-81
2022/01/22 06:34:47;;;;;;;;;;;;;;;14.99;48.91;103498.88;5119787;28;20427;-82
2022/01/22 06:37:12;;;;;;;;;;;;;;;15.51;48.06;103502.16;5118517;28;19916;-82
2022/01/22 06:41:43;;;;;;;;;;;;;;;14.96;49.32;103515.31;5119124;28;20554;-82
2022/01/22 06:42:23;;;;;;;;;;;;;;;14.57;50.26;103518.88;5123697;28;19927;-81
2022/01/22 06:44:48;;;;;;;;;;;;;;;14.94;49.03;103509.91;5124113;28;19920;-82
2022/01/22 06:47:13;;;;;;;;;;;;;;;14.58;50.68;103520.66;5123185;28;19916;-83
2022/01/22 06:49:39;;;;;;;;;;;;;;;14.84;49.95;103517.41;5122572;28;19937;-82
2022/01/22 06:52:04;;;;;;;;;;;;;;;14.18;51.27;103508.78;5122397;28;20579;-82
2022/01/22 06:54:29;;;;;;;;;;;;;;;14.27;51.14;103518.59;5122775;28;19920;-81
2022/01/22 06:56:54;;;;;;;;;;;;;;;14.08;51.98;103515.34;5124327;28;20427;-81
2022/01/22 06:59:20;;;;;;;;;;;;;;;14.50;51.25;103523.56;5123112;28;20353;-82
2022/01/22 07:01:48;;;;;;;;;;;;;;;14.41;51.54;103526.47;5122765;28;19948;-80
2022/01/22 07:04:15;;;;;;;;;;;;;;;14.39;51.68;103513.81;5123324;28;19915;-81
2022/01/22 07:06:40;;;;;;;;;;;;;;;14.41;51.62;103529.19;5123607;28;19920;-80
2022/01/22 07:09:05;;;;;;;;;;;;;;;14.22;51.70;103522.34;5122153;28;20361;-83
2022/01/22 07:11:30;;;;;;;;;;;;;;;14.60;51.20;103524.28;5122493;28;19927;-80
2022/01/22 07:13:56;;;;;;;;;;;;;;;15.17;49.38;103539.38;5124083;28;19923;-81
2022/01/22 07:16:21;;;;;;;;;;;;;;;15.08;49.54;103531.38;5122899;28;19916;-81
2022/01/22 07:18:47;;;;;;;;;;;;;;;14.70;50.88;103538.59;5122722;28;19916;-80
2022/01/22 07:21:20;;;;;;;;;;;;;;;14.82;50.39;103527.44;5122902;28;19959;-80
2022/01/22 07:26:14;;;;;;;;;;;;;;;14.29;52.50;103524.00;5124102;28;19939;-80
2022/01/22 07:28:40;;;;;;;;;;;;;;;14.69;51.05;103512.31;5122711;28;20020;-80
2022/01/22 07:31:05;;;;;;;;;;;;;;;14.94;50.63;103512.63;5124455;28;19981;-81
2022/01/22 07:33:31;;;;;;;;;;;;;;;15.19;50.10;103523.84;5124447;28;20014;-80
2022/01/22 07:35:56;;;;;;;;;;;;;;;14.77;50.96;103520.31;5121937;28;19916;-81
2022/01/22 07:38:21;;;;;;;;;;;;;;;15.03;50.43;103522.44;5122180;28;19916;-81
2022/01/22 07:40:47;;;;;;;;;;;;;;;14.39;52.27;103517.44;5121113;28;20432;-79
2022/01/22 07:43:14;;;;;;;;;;;;;;;14.47;51.15;103512.72;5119209;28;20415;-81
2022/01/22 07:45:39;;;;;;;;;;;;;;;13.50;54.21;103516.41;5119569;28;19920;-81
2022/01/22 07:48:05;;;;;;;;;;;;;;;13.47;54.81;103509.22;5120401;28;19923;-81
2022/01/22 07:50:30;;;;;;;;;;;;;;;13.44;53.74;103507.44;5119918;28;20293;-81
2022/01/22 07:52:57;;;;;;;;;;;;;;;13.95;52.97;103508.31;5119054;28;19919;-80
2022/01/22 07:55:22;;;;;;;;;;;;;;;13.95;52.80;103508.31;5120239;28;20292;-80
2022/01/22 07:57:47;;;;;;;;;;;;;;;13.97;52.57;103506.50;5119995;28;19922;-83
2022/01/22 08:00:14;;;;;;;;;;;;;;;13.23;54.69;103515.91;5119459;28;20327;-81
2022/01/22 08:02:40;;;;;;;;;;;;;;;13.10;55.17;103507.97;5119860;28;19934;-78
2022/01/22 08:05:05;;;;;;;;;;;;;;;13.41;54.38;103504.75;5119075;28;19916;-86
2022/01/22 08:07:31;;;;;;;;;;;;;;;13.80;53.04;103505.00;5098116;28;19932;-80
2022/01/22 08:09:58;;;;;;;;;;;;;;;13.93;52.44;103497.47;5086289;28;19916;-81
2022/01/22 08:12:23;;;;;;;;;;;;;;;14.21;52.02;103490.59;5078144;28;20061;-81
2022/01/22 08:14:48;;;;;;;;;;;;;;;14.43;51.64;103499.22;5087265;28;20368;-80
2022/01/22 08:17:13;;;;;;;;;;;;;;;14.52;51.38;103501.72;5085448;28;19920;-81
2022/01/22 08:19:38;;;;;;;;;;;;;;;13.98;52.58;103508.31;5095823;28;19923;-80
2022/01/22 08:22:04;;;;;;;;;;;;;;;14.04;52.84;103502.72;5079505;28;19921;-82
2022/01/22 08:24:29;;;;;;;;;;;;;;;13.83;53.58;103510.38;5077381;28;19948;-81
2022/01/22 08:29:35;;;;;;;;;;;;;;;14.26;52.10;103503.19;5077200;28;19923;-81
2022/01/22 08:37:21;;;;;;;;;;;;;;;14.06;52.24;103510.88;5097681;28;20000;-81
2022/01/22 08:39:47;;;;;;;;;;;;;;;14.65;51.48;103516.03;5098198;28;19957;-85
2022/01/22 08:42:12;;;;;;;;;;;;;;;14.18;52.05;103522.41;5095672;28;20313;-86
2022/01/22 08:44:39;;;;;;;;;;;;;;;14.14;52.42;103526.09;5096532;28;19938;-82
2022/01/22 08:47:05;;;;;;;;;;;;;;;14.49;51.01;103523.59;5096941;28;19924;-83
2022/01/22 08:49:30;;;;;;;;;;;;;;;14.14;52.09;103523.38;5095745;28;20285;-82
2022/01/22 08:51:55;;;;;;;;;;;;;;;14.21;52.26;103528.72;5097779;28;19924;-83
2022/01/22 08:54:20;;;;;;;;;;;;;;;13.91;52.39;103528.38;5097063;28;19920;-83
2022/01/22 08:56:46;;;;;;;;;;;;;;;15.13;49.70;103532.19;5096918;28;19923;-83
2022/01/22 08:59:12;;;;;;;;;;;;;;;14.32;51.59;103532.13;5093448;28;19916;-82
2022/01/22 09:01:38;;;;;;;;;;;;;;;14.79;50.41;103529.34;5094589;28;19951;-82
2022/01/22 09:04:04;;;;;;;;;;;;;;;15.18;49.55;103537.53;5094418;28;19970;-80
2022/01/22 09:06:29;;;;;;;;;;;;;;;14.73;50.34;103538.53;5095024;28;19920;-81
2022/01/22 09:09:05;;;;;;;;;;;;;;;14.69;50.47;103535.00;5094380;28;19916;-82
2022/01/22 09:11:30;;;;;;;;;;;;;;;14.08;51.95;103537.09;5095886;28;19920;-83
2022/01/22 09:13:55;;;;;;;;;;;;;;;13.39;53.83;103530.19;5094923;28;20366;-84
2022/01/22 09:16:20;;;;;;;;;;;;;;;13.44;54.39;103533.75;5095676;28;19924;-82
2022/01/22 09:18:47;;;;;;;;;;;;;;;13.53;54.68;103546.28;5096895;28;20073;-82
2022/01/22 09:21:12;;;;;;;;;;;;;;;13.41;54.87;103539.22;5096913;28;19920;-82
2022/01/22 09:23:37;;;;;;;;;;;;;;;13.60;54.62;103545.25;5094712;28;19926;-81
2022/01/22 09:26:02;;;;;;;;;;;;;;;13.64;54.38;103552.44;5095129;28;19916;-82
2022/01/22 09:28:30;;;;;;;;;;;;;;;14.37;52.75;103551.97;5096112;28;19904;-81
2022/01/22 09:30:55;;;;;;;;;;;;;;;13.24;54.96;103555.75;5095361;28;19923;-81
2022/01/22 09:33:20;;;;;;;;;;;;;;;13.23;55.03;103562.13;5094633;28;19916;-86
2022/01/22 09:35:46;;;;;;;;;;;;;;;13.11;55.49;103566.81;5094599;28;20018;-82
2022/01/22 09:38:11;;;;;;;;;;;;;;;13.25;54.99;103566.59;5095477;28;20430;-81
2022/01/22 09:40:36;;;;;;;;;;;;;;;13.43;54.36;103565.44;5096469;28;19923;-83
2022/01/22 09:43:02;;;;;;;;;;;;;;;13.18;54.97;103573.06;5095978;28;19916;-83
2022/01/22 09:45:28;;;;;;;;;;;;;;;13.32;54.73;103578.31;5096811;28;19920;-85
2022/01/22 09:47:54;;;;;;;;;;;;;;;14.21;52.35;103573.19;5095127;28;19916;-81
2022/01/22 09:50:21;;;;;;;;;;;;;;;13.49;53.19;103582.63;5096735;28;19955;-83
2022/01/22 09:52:46;;;;;;;;;;;;;;;13.10;55.89;103583.16;5097754;28;19970;-83
2022/01/22 09:55:12;;;;;;;;;;;;;;;13.73;54.09;103574.03;5097254;28;19916;-84
2022/01/22 09:57:38;;;;;;;;;;;;;;;14.82;50.49;103579.22;5095191;28;20175;-83
2022/01/22 10:00:07;;;;;;;;;;;;;;;14.56;51.16;103577.03;5096551;28;19916;-86
2022/01/22 10:02:38;;;;;;;;;;;;;;;13.96;52.89;103580.91;5095682;28;20430;-84
2022/01/22 10:05:03;;;;;;;;;;;;;;;14.43;51.51;103579.13;5095025;28;19958;-82
2022/01/22 10:07:28;;;;;;;;;;;;;;;15.19;49.89;103577.50;5095295;28;19921;-82
2022/01/22 10:09:58;;;;;;;;;;;;;;;15.83;48.31;103575.03;5094481;28;19924;-82
2022/01/22 10:12:26;;;;;;;;;;;;;;;15.74;48.37;103591.63;5095116;28;20013;-82
2022/01/22 10:15:04;;;;;;;;;;;;;;;15.31;49.01;103581.75;5097570;28;20009;-81
2022/01/22 10:17:40;;;;;;;;;;;;;;;15.08;49.25;103583.19;5131115;27;19931;-82
2022/01/22 10:20:21;;;;;;;;;;;;;;;15.42;49.18;103596.94;5099886;28;20431;-81
2022/01/22 10:22:46;;;;;;;;;;;;;;;15.74;48.25;103597.06;5099596;28;19924;-82
2022/01/22 10:25:22;;;;;;;;;;;;;;;15.44;48.50;103596.91;5098414;28;19923;-81
2022/01/22 10:28:21;;;;;;;;;;;;;;;15.06;49.39;103606.88;5098864;28;19942;-81
2022/01/22 10:30:48;;;;;;;;;;;;;;;15.63;48.74;103600.09;5090791;28;19912;-82
2022/01/22 10:35:49;;;;;;;;;;;;;;;14.83;50.69;103596.47;5099835;28;20048;-80
2022/01/22 10:38:17;;;;;;;;;;;;;;;14.83;50.62;103591.91;5097792;28;19917;-81
2022/01/22 10:40:43;;;;;;;;;;;;;;;15.57;49.25;103594.78;5097376;28;20285;-80
2022/01/22 10:43:10;;;;;;;;;;;;;;;15.73;48.58;103596.19;5098397;28;19942;-81
2022/01/22 10:45:39;;;;;;;;;;;;;;;15.48;48.93;103593.16;5131170;27;19939;-83
2022/01/22 10:48:20;;;;;;;;;;;;;;;15.09;49.61;103595.00;5096815;28;19923;-82
2022/01/22 10:50:45;;;;;;;;;;;;;;;14.80;50.91;103597.44;5096951;28;19952;-82
2022/01/22 10:53:10;;;;;;;;;;;;;;;14.84;50.83;103593.72;5096795;28;19943;-83
2022/01/22 10:56:08;;;;;;;;;;;;;;;14.49;51.61;103595.34;5099633;28;20287;-81
2022/01/22 10:58:34;;;;;;;;;;;;;;;15.11;50.05;103591.28;5077058;28;20188;-81
2022/01/22 11:01:00;;;;;;;;;;;;;;;14.79;50.54;103601.09;5096706;28;19920;-81
2022/01/22 11:03:28;;;;;;;;;;;;;;;14.64;50.74;103599.56;5133109;27;20391;-81
2022/01/22 11:05:53;;;;;;;;;;;;;;;15.65;48.45;103594.59;5098943;28;19916;-81
2022/01/22 11:08:18;;;;;;;;;;;;;;;14.48;50.68;103596.25;5098899;28;19927;-81
2022/01/22 11:10:45;;;;;;;;;;;;;;;13.87;51.50;103586.50;5097989;28;19916;-81
2022/01/22 11:13:10;;;;;;;;;;;;;;;14.11;51.57;103571.56;5098024;28;20327;-80
2022/01/22 11:15:37;;;;;;;;;;;;;;;13.32;54.44;103581.03;5097616;28;19927;-80
2022/01/22 11:18:03;;;;;;;;;;;;;;;14.18;52.39;103585.00;5097735;28;19966;-81
2022/01/22 11:20:30;;;;;;;;;;;;;;;13.85;53.18;103594.69;5098867;28;19964;-81
2022/01/22 11:22:56;;;;;;;;;;;;;;;13.51;53.70;103588.91;5098978;28;19928;-82
2022/01/22 11:25:22;;;;;;;;;;;;;;;14.08;53.43;103601.56;5097398;28;19916;-81
2022/01/22 11:27:49;;;;;;;;;;;;;;;13.35;54.53;103602.75;5096042;28;19923;-82
2022/01/22 11:30:15;;;;;;;;;;;;;;;13.67;54.09;103595.91;5096775;28;19915;-83
2022/01/22 11:32:43;;;;;;;;;;;;;;;13.52;54.32;103598.88;5097399;28;20435;-83
2022/01/22 11:35:09;;;;;;;;;;;;;;;13.72;54.50;103601.25;5099474;28;19962;-81
2022/01/22 11:37:34;;;;;;;;;;;;;;;14.16;53.51;103600.50;5098425;28;19916;-82
2022/01/22 11:40:12;;;;;;;;;;;;;;;14.40;51.86;103605.50;5099446;28;20285;-82
2022/01/22 11:42:59;;;;;;;;;;;;;;;14.76;51.19;103600.25;5099954;28;19916;-81
2022/01/22 11:45:26;;;;;;;;;;;;;;;13.61;53.70;103606.88;5098090;28;19924;-83
2022/01/22 11:48:10;;;;;;;;;;;;;;;13.60;54.25;103606.00;5101190;28;20011;-84
2022/01/22 11:50:35;;;;;;;;;;;;;;;14.11;52.96;103596.94;5098109;28;19928;-82
2022/01/22 11:53:22;;;;;;;;;;;;;;;14.44;51.14;103599.94;5132388;27;19979;-81
2022/01/22 11:56:06;;;;;;;;;;;;;;;14.61;51.02;103596.91;5098351;28;19988;-81
2022/01/22 11:58:31;;;;;;;;;;;;;;;14.20;52.54;103595.00;5097985;28;20289;-81
2022/01/22 12:00:56;;;;;;;;;;;;;;;13.71;53.62;103602.19;5098804;28;19923;-82
2022/01/22 12:03:21;;;;;;;;;;;;;;;14.62;51.60;103593.28;5098568;28;20126;-81
2022/01/22 12:05:53;;;;;;;;;;;;;;;14.45;51.67;103596.31;5098516;28;19987;-82
2022/01/22 12:08:19;;;;;;;;;;;;;;;13.90;52.71;103591.91;5098699;28;19916;-82
2022/01/22 12:14:26;;;;;;;;;;;;;;;14.17;52.14;103594.09;5099230;28;19927;-83
2022/01/22 12:16:16;;;;;;;;;;;;;;;13.97;52.26;103593.59;5098569;28;20331;-83
2022/01/22 12:18:50;;;;;;;;;;;;;;;13.94;52.36;103589.09;5096998;28;19916;-82
2022/01/22 12:23:54;;;;;;;;;;;;;;;13.81;53.07;103580.25;5098517;28;20297;-83
2022/01/22 12:26:36;;;;;;;;;;;;;;;14.16;51.94;103581.44;5097178;28;20381;-82
2022/01/22 12:29:21;;;;;;;;;;;;;;;14.10;51.38;103581.56;5097360;28;19962;-83
2022/01/22 12:32:06;;;;;;;;;;;;;;;14.24;51.29;103585.84;5096637;28;19921;-82
2022/01/22 12:34:50;;;;;;;;;;;;;;;14.26;51.14;103583.97;5096913;28;19920;-82
2022/01/22 12:37:17;;;;;;;;;;;;;;;14.32;51.51;103589.31;5096958;28;19918;-82
2022/01/22 12:39:44;;;;;;;;;;;;;;;13.52;53.83;103590.72;5131259;27;19975;-83
2022/01/22 12:42:12;;;;;;;;;;;;;;;13.57;53.88;103583.38;5131529;27;19920;-80
2022/01/22 12:44:46;;;;;;;;;;;;;;;13.35;54.77;103583.72;5096110;28;19916;-81
2022/01/22 12:47:12;;;;;;;;;;;;;;;13.81;53.20;103582.06;5097326;28;19951;-80
2022/01/22 12:49:37;;;;;;;;;;;;;;;13.97;52.63;103586.31;5096804;28;20259;-82
2022/01/22 12:52:04;;;;;;;;;;;;;;;13.73;53.08;103584.03;5097598;28;20061;-82
2022/01/22 12:54:31;;;;;;;;;;;;;;;14.09;52.08;103590.63;5098439;28;19931;-81
2022/01/22 12:57:06;;;;;;;;;;;;;;;14.57;51.23;103586.06;5096639;28;19923;-81
2022/01/22 12:59:32;;;;;;;;;;;;;;;13.87;52.49;103591.94;5096823;28;19920;-82
2022/01/22 13:01:57;;;;;;;;;;;;;;;13.68;52.54;103575.94;5097836;28;19923;-83
2022/01/22 13:04:23;;;;;;;;;;;;;;;14.11;52.05;103585.16;5097825;28;19996;-83
2022/01/22 13:06:51;;;;;;;;;;;;;;;13.91;52.03;103578.25;5096705;28;19922;-81
2022/01/22 13:09:17;;;;;;;;;;;;;;;14.53;50.96;103587.97;5097304;28;19916;-82
2022/01/22 13:11:49;;;;;;;;;;;;;;;14.01;52.06;103589.91;5096532;28;19980;-82
2022/01/22 13:14:17;;;;;;;;;;;;;;;14.56;50.56;103592.47;5096465;28;19923;-82
2022/01/22 13:16:48;;;;;;;;;;;;;;;14.31;51.06;103598.38;5097523;28;19916;-84
2022/01/22 13:19:13;;;;;;;;;;;;;;;13.52;52.45;103596.16;5096345;28;19923;-82
2022/01/22 13:21:47;;;;;;;;;;;;;;;13.71;52.97;103594.94;5097799;28;19924;-82
2022/01/22 13:24:12;;;;;;;;;;;;;;;14.05;51.31;103588.00;5130157;27;19916;-83
2022/01/22 13:26:39;;;;;;;;;;;;;;;13.52;53.02;103598.88;5130207;27;19923;-82
2022/01/22 13:29:17;;;;;;;;;;;;;;;13.48;53.04;103600.72;5095524;28;20448;-83
2022/01/22 13:32:01;;;;;;;;;;;;;;;13.47;52.92;103602.56;5096719;28;19922;-81
2022/01/22 13:34:46;;;;;;;;;;;;;;;14.16;51.00;103600.50;5095885;28;19938;-82
2022/01/22 13:38:16;;;;;;;;;;;;;;;14.53;50.36;103596.16;5096143;28;19927;-82
2022/01/22 13:47:44;;;;;;;;;;;;;;;14.14;51.25;103606.88;5097861;28;19975;-82
2022/01/22 13:47:56;;;;;;;;;;;;;;;14.07;51.76;103605.19;5097484;28;19962;-82
2022/01/22 13:50:22;;;;;;;;;;;;;;;13.41;53.42;103605.38;5097924;28;19979;-81
2022/01/22 13:52:47;;;;;;;;;;;;;;;13.97;52.46;103605.38;5099940;28;19956;-82
2022/01/22 13:55:14;;;;;;;;;;;;;;;13.70;52.52;103601.28;5099537;28;19959;-81
2022/01/22 13:57:39;;;;;;;;;;;;;;;13.66;52.76;103599.53;5099755;28;19924;-83
2022/01/22 14:00:18;;;;;;;;;;;;;;;13.09;54.51;103605.84;5101503;28;19966;-82
2022/01/22 14:03:28;;;;;;;;;;;;;;;13.77;53.47;103605.72;5100887;28;19957;-82
2022/01/22 14:05:36;;;;;;;;;;;;;;;13.99;51.99;103602.63;5099805;28;19963;-82
2022/01/22 14:08:10;;;;;;;;;;;;;;;13.29;53.94;103602.81;5099324;28;20282;-82
2022/01/22 14:10:36;;;;;;;;;;;;;;;13.31;54.24;103611.84;5100048;28;19923;-82
2022/01/22 14:13:08;;;;;;;;;;;;;;;13.45;54.07;103606.22;5102325;28;19916;-83
2022/01/22 14:15:39;;;;;;;;;;;;;;;13.11;55.37;103603.97;5101835;28;19999;-83
2022/01/22 14:18:15;;;;;;;;;;;;;;;13.68;54.00;103603.16;5100977;28;19916;-82